createdAt,value
2022-09-18T00:01:22.688Z,1.92
2022-09-18T00:03:49.272Z,1.23
2022-09-18T00:06:19.275Z,1.30
2022-09-18T00:08:48.527Z,1.00
2022-09-18T00:11:19.355Z,1.20
2022-09-18T00:13:49.101Z,1.83
2022-09-18T00:16:16.567Z,1.50
2022-09-18T00:18:44.173Z,1.88
2022-09-18T00:21:24.513Z,1.42
2022-09-18T00:23:56.541Z,1.38
2022-09-18T00:26:25.754Z,1.70
2022-09-18T00:28:53.596Z,1.85
2022-09-18T00:31:25.715Z,1.17
2022-09-18T00:33:53.015Z,1.27
2022-09-18T00:36:20.134Z,2.38
2022-09-18T00:38:46.930Z,1.52
2022-09-18T00:41:19.638Z,1.35
2022-09-18T00:43:46.066Z,1.42
2022-09-18T00:46:33.878Z,1.73
2022-09-18T00:49:17.095Z,2.25
2022-09-18T00:51:49.642Z,1.40
2022-09-18T00:54:52.137Z,1.83
2022-09-18T00:57:22.297Z,1.55
2022-09-18T00:59:51.808Z,1.75
2022-09-18T01:02:18.991Z,2.35
2022-09-18T01:04:46.604Z,1.20
2022-09-18T01:07:31.166Z,1.40
2022-09-18T01:10:39.319Z,1.20
2022-09-18T01:13:27.433Z,1.25
2022-09-18T01:16:11.994Z,1.60
2022-09-18T01:19:18.433Z,1.65
2022-09-18T01:21:56.958Z,1.83
2022-09-18T01:24:57.419Z,1.30
2022-09-18T01:27:35.959Z,1.40
2022-09-18T01:30:11.203Z,1.40
2022-09-18T01:33:04.092Z,1.88
2022-09-18T01:35:43.284Z,1.50
2022-09-18T01:38:29.017Z,1.70
2022-09-18T01:41:20.917Z,1.17
2022-09-18T01:43:53.188Z,1.20
2022-09-18T01:46:20.326Z,2.38
2022-09-18T01:49:02.702Z,1.23
2022-09-18T01:51:43.254Z,1.52
2022-09-18T01:54:16.868Z,1.42
2022-09-18T01:56:52.155Z,2.22
2022-09-18T01:59:32.904Z,1.27
2022-09-18T02:02:03.392Z,1.48
2022-09-18T02:04:35.928Z,1.63
2022-09-18T02:07:24.297Z,1.63
2022-09-18T02:09:50.635Z,1.63
2022-09-18T02:12:22.449Z,1.95
2022-09-18T02:14:52.872Z,1.50
2022-09-18T02:17:29.961Z,1.60
2022-09-18T02:20:00.389Z,1.48
2022-09-18T02:22:30.446Z,1.70
2022-09-18T02:24:59.553Z,1.95
2022-09-18T02:27:26.871Z,1.80
2022-09-18T02:29:55.279Z,1.75
2022-09-18T02:32:22.109Z,2.08
2022-09-18T02:34:48.701Z,1.33
2022-09-18T02:37:37.024Z,1.80
2022-09-18T02:40:28.333Z,1.70
2022-09-18T02:43:16.331Z,1.48
2022-09-18T02:46:13.261Z,1.95
2022-09-18T02:48:45.377Z,1.80
2022-09-18T02:51:27.350Z,1.40
2022-09-18T02:54:01.487Z,1.88
2022-09-18T02:56:44.195Z,2.35
2022-09-18T02:59:24.260Z,1.70
2022-09-18T03:01:52.489Z,1.63
2022-09-18T03:04:27.148Z,1.33
2022-09-18T03:06:54.297Z,1.63
2022-09-18T03:09:22.138Z,2.33
2022-09-18T03:11:49.786Z,1.50
2022-09-18T03:14:16.333Z,1.33
2022-09-18T03:16:42.796Z,1.88
2022-09-18T03:19:09.239Z,1.67
2022-09-18T03:21:35.682Z,1.75
2022-09-18T03:24:02.588Z,1.77
2022-09-18T03:26:29.050Z,1.80
2022-09-18T03:28:55.406Z,1.88
2022-09-18T03:31:21.833Z,3.35
2022-09-18T03:33:48.288Z,1.70
2022-09-18T03:36:14.657Z,1.70
2022-09-18T03:38:41.697Z,2.03
2022-09-18T03:41:08.837Z,1.77
2022-09-18T03:43:35.295Z,1.70
2022-09-18T03:46:01.779Z,2.20
2022-09-18T03:48:28.450Z,1.58
2022-09-18T03:50:54.819Z,1.88
2022-09-18T03:53:21.198Z,1.85
2022-09-18T03:55:50.172Z,2.22
2022-09-18T03:58:16.773Z,1.67
2022-09-18T04:00:43.379Z,2.10
2022-09-18T04:03:09.754Z,1.70
2022-09-18T04:05:36.204Z,2.40
2022-09-18T04:08:02.577Z,1.73
2022-09-18T04:10:28.942Z,2.15
2022-09-18T04:12:55.327Z,1.90
2022-09-18T04:15:21.703Z,1.90
2022-09-18T04:17:48.094Z,1.75
2022-09-18T04:20:14.618Z,1.88
2022-09-18T04:22:41.592Z,1.90
2022-09-18T04:25:08.590Z,2.20
2022-09-18T04:27:36.306Z,2.20
2022-09-18T04:30:03.294Z,2.25
2022-09-18T04:32:29.650Z,1.92
2022-09-18T04:34:56.053Z,2.15
2022-09-18T04:37:22.456Z,2.15
2022-09-18T04:39:48.912Z,2.17
2022-09-18T04:42:15.278Z,2.08
2022-09-18T04:44:41.847Z,2.00
2022-09-18T04:47:08.261Z,2.28
2022-09-18T04:49:37.561Z,2.00
2022-09-18T04:52:03.977Z,2.17
2022-09-18T04:54:30.388Z,2.00
2022-09-18T04:56:56.769Z,2.15
2022-09-18T04:59:23.095Z,1.92
2022-09-18T05:01:49.500Z,1.83
2022-09-18T05:04:16.624Z,2.40
2022-09-18T05:06:43.352Z,1.85
2022-09-18T05:09:09.713Z,1.55
2022-09-18T05:11:36.196Z,2.00
2022-09-18T05:14:02.638Z,2.10
2022-09-18T05:16:29.120Z,2.22
2022-09-18T05:18:55.944Z,2.00
2022-09-18T05:21:22.525Z,2.13
2022-09-18T05:23:48.990Z,2.40
2022-09-18T05:26:15.522Z,2.05
2022-09-18T05:28:41.865Z,2.15
2022-09-18T05:31:08.702Z,1.85
2022-09-18T05:33:36.727Z,2.65
2022-09-18T05:36:05.607Z,1.83
2022-09-18T05:38:32.303Z,1.50
2022-09-18T05:41:02.443Z,1.95
2022-09-18T05:43:29.589Z,1.80
2022-09-18T05:45:56.049Z,1.85
2022-09-18T05:48:22.757Z,1.77
2022-09-18T05:50:51.772Z,1.85
2022-09-18T05:53:20.080Z,1.58
2022-09-18T05:55:46.766Z,2.13
2022-09-18T05:58:17.935Z,1.75
2022-09-18T06:00:45.260Z,1.90
2022-09-18T06:03:14.546Z,1.98
2022-09-18T06:05:42.167Z,2.30
2022-09-18T06:08:11.389Z,2.00
2022-09-18T06:10:39.816Z,1.70
2022-09-18T06:13:15.570Z,1.90
2022-09-18T06:15:47.227Z,2.20
2022-09-18T06:18:14.759Z,2.13
2022-09-18T06:20:42.354Z,2.45
2022-09-18T06:23:08.714Z,2.88
2022-09-18T06:25:35.618Z,2.50
2022-09-18T06:28:02.690Z,2.25
2022-09-18T06:30:32.061Z,2.17
2022-09-18T06:33:03.769Z,2.13
2022-09-18T06:35:31.097Z,2.28
2022-09-18T06:38:01.430Z,2.58
2022-09-18T06:40:27.921Z,2.00
2022-09-18T06:42:58.300Z,2.42
2022-09-18T06:45:25.453Z,2.45
2022-09-18T06:47:55.217Z,2.90
2022-09-18T06:50:23.068Z,2.50
2022-09-18T06:52:49.690Z,2.67
2022-09-18T06:55:16.971Z,2.50
2022-09-18T06:57:43.533Z,2.55
2022-09-18T07:00:11.396Z,2.65
2022-09-18T07:02:37.947Z,2.55
2022-09-18T07:05:04.632Z,2.42
2022-09-18T07:07:31.075Z,2.70
2022-09-18T07:09:57.494Z,2.65
2022-09-18T07:12:23.956Z,2.28
2022-09-18T07:14:51.617Z,2.22
2022-09-18T07:17:20.455Z,2.28
2022-09-18T07:19:48.900Z,2.78
2022-09-18T07:22:15.658Z,2.58
2022-09-18T07:24:42.029Z,3.00
2022-09-18T07:27:08.596Z,2.35
2022-09-18T07:29:34.943Z,2.35
2022-09-18T07:32:01.426Z,2.35
2022-09-18T07:34:28.577Z,2.92
2022-09-18T07:36:54.907Z,2.47
2022-09-18T07:39:21.296Z,2.38
2022-09-18T07:41:48.007Z,2.90
2022-09-18T07:44:14.356Z,2.30
2022-09-18T07:46:40.761Z,3.15
2022-09-18T07:49:07.140Z,2.17
2022-09-18T07:51:33.556Z,1.90
2022-09-18T07:53:59.957Z,2.08
2022-09-18T07:56:26.313Z,3.35
2022-09-18T07:58:52.853Z,2.65
2022-09-18T08:01:19.213Z,3.28
2022-09-18T08:03:45.858Z,2.47
2022-09-18T08:06:12.866Z,2.45
2022-09-18T08:08:39.255Z,2.72
2022-09-18T08:11:05.744Z,2.15
2022-09-18T08:13:32.234Z,2.47
2022-09-18T08:15:58.817Z,2.25
2022-09-18T08:18:25.247Z,1.85
2022-09-18T08:20:51.626Z,2.30
2022-09-18T08:23:18.002Z,3.17
2022-09-18T08:25:44.401Z,1.95
2022-09-18T08:28:10.976Z,1.95
2022-09-18T08:30:37.384Z,2.25
2022-09-18T08:33:06.796Z,2.05
2022-09-18T08:35:33.917Z,1.88
2022-09-18T08:38:00.871Z,2.55
2022-09-18T08:40:59.412Z,3.47
2022-09-18T08:43:51.199Z,3.78
2022-09-18T08:46:39.783Z,2.13
2022-09-18T08:49:12.928Z,2.60
2022-09-18T08:51:55.496Z,2.00
2022-09-18T08:54:37.776Z,1.48
2022-09-18T08:57:15.569Z,1.58
2022-09-18T08:59:48.959Z,2.08
2022-09-18T09:02:31.018Z,1.75
2022-09-18T09:05:01.389Z,1.73
2022-09-18T09:07:43.148Z,1.38
2022-09-18T09:10:31.571Z,1.48
2022-09-18T09:13:00.880Z,1.15
2022-09-18T09:15:39.180Z,1.52
2022-09-18T09:18:17.975Z,1.50
2022-09-18T09:20:50.757Z,1.15
2022-09-18T09:23:34.478Z,1.63
2022-09-18T09:26:12.066Z,1.27
2022-09-18T09:28:52.691Z,1.40
2022-09-18T09:31:24.495Z,1.30
2022-09-18T09:34:12.653Z,1.30
2022-09-18T09:36:42.257Z,1.80
2022-09-18T09:39:19.877Z,1.15
2022-09-18T09:42:05.613Z,1.33
2022-09-18T09:44:41.671Z,1.30
2022-09-18T09:47:32.228Z,1.33
2022-09-18T09:50:36.040Z,1.27
2022-09-18T09:53:07.552Z,1.17
2022-09-18T09:55:52.594Z,1.23
2022-09-18T09:58:34.063Z,1.05
2022-09-18T10:01:15.621Z,0.90
2022-09-18T10:03:55.666Z,1.10
2022-09-18T10:06:34.416Z,1.48
2022-09-18T10:09:15.220Z,1.65
2022-09-18T10:11:49.118Z,1.80
2022-09-18T10:14:20.353Z,1.23
2022-09-18T10:16:51.060Z,1.27
2022-09-18T10:19:20.824Z,1.20
2022-09-18T10:21:49.951Z,1.08
2022-09-18T10:24:22.763Z,2.42
2022-09-18T10:26:54.244Z,2.20
2022-09-18T10:29:20.933Z,1.33
2022-09-18T10:31:55.773Z,1.80
2022-09-18T10:34:45.737Z,1.02
2022-09-18T10:37:30.769Z,2.00
2022-09-18T10:40:01.448Z,1.15
2022-09-18T10:42:31.829Z,1.95
2022-09-18T10:45:21.931Z,1.60
2022-09-18T10:47:48.387Z,2.70
2022-09-18T10:50:14.692Z,1.40
2022-09-18T10:52:46.515Z,1.25
2022-09-18T10:55:14.748Z,1.45
2022-09-18T10:58:02.062Z,3.13
2022-09-18T11:00:29.908Z,1.90
2022-09-18T11:03:18.123Z,1.73
2022-09-18T11:05:55.309Z,2.22
2022-09-18T11:08:25.516Z,1.70
2022-09-18T11:10:59.492Z,1.48
2022-09-18T11:13:28.065Z,1.90
2022-09-18T11:15:58.963Z,1.25
2022-09-18T11:18:26.848Z,1.35
2022-09-18T11:20:56.979Z,1.48
2022-09-18T11:23:32.062Z,1.02
2022-09-18T11:26:12.323Z,1.30
2022-09-18T11:28:39.870Z,1.10
2022-09-18T11:31:15.171Z,1.20
2022-09-18T11:33:51.448Z,1.83
2022-09-18T11:36:27.312Z,1.15
2022-09-18T11:38:54.921Z,1.10
2022-09-18T11:41:34.805Z,1.45
2022-09-18T11:44:04.752Z,2.03
2022-09-18T11:46:46.987Z,1.00
2022-09-18T11:49:19.436Z,1.65
2022-09-18T11:52:05.258Z,1.40
2022-09-18T11:54:46.831Z,1.45
2022-09-18T11:57:21.073Z,1.17
2022-09-18T11:59:57.377Z,1.67
2022-09-18T12:02:41.316Z,1.98
2022-09-18T12:07:47.599Z,1.70
2022-09-18T12:10:45.795Z,1.80
2022-09-18T12:13:34.517Z,1.90
2022-09-18T12:16:06.954Z,1.65
2022-09-18T12:18:48.683Z,1.50
2022-09-18T12:21:20.068Z,1.60
2022-09-18T12:23:49.621Z,1.33
2022-09-18T12:26:19.193Z,1.52
2022-09-18T12:28:49.290Z,1.35
2022-09-18T12:31:47.923Z,1.30
2022-09-18T12:34:49.698Z,0.82
2022-09-18T12:37:35.462Z,1.10
2022-09-18T12:40:15.759Z,1.38
2022-09-18T12:42:57.657Z,1.77
2022-09-18T12:45:30.368Z,1.63
2022-09-18T12:48:18.706Z,1.67
2022-09-18T12:51:03.611Z,1.90
2022-09-18T12:54:06.707Z,1.60
2022-09-18T12:56:56.608Z,1.40
2022-09-18T12:59:57.955Z,1.35
2022-09-18T13:02:49.166Z,1.27
2022-09-18T13:05:35.270Z,1.70
2022-09-18T13:08:12.421Z,1.17
2022-09-18T13:10:40.331Z,1.50
2022-09-18T13:13:43.523Z,1.40
2022-09-18T13:16:14.874Z,1.43
2022-09-18T13:19:03.876Z,1.30
2022-09-18T13:21:37.411Z,1.40
2022-09-18T13:24:06.091Z,0.90
2022-09-18T13:26:37.916Z,1.50
2022-09-18T13:29:24.261Z,1.30
2022-09-18T13:31:53.967Z,1.48
2022-09-18T13:34:22.780Z,1.48
2022-09-18T13:36:49.606Z,0.98
2022-09-18T13:39:26.885Z,1.23
2022-09-18T13:41:55.908Z,1.02
2022-09-18T13:44:31.338Z,1.17
2022-09-18T13:47:19.004Z,1.40
2022-09-18T13:49:58.860Z,1.30
2022-09-18T13:52:31.549Z,1.35
2022-09-18T13:55:26.610Z,1.30
2022-09-18T13:58:30.889Z,1.00
2022-09-18T14:01:02.540Z,1.13
2022-09-18T14:03:28.887Z,1.02
2022-09-18T14:05:55.386Z,0.82
2022-09-18T14:08:22.406Z,1.48
2022-09-18T14:11:05.314Z,1.00
2022-09-18T14:13:38.363Z,1.02
2022-09-18T14:16:23.844Z,1.30
2022-09-18T14:19:22.846Z,1.40
2022-09-18T14:21:49.330Z,1.10
2022-09-18T14:24:20.814Z,0.93
2022-09-18T14:26:47.493Z,0.57
2022-09-18T14:29:18.606Z,1.30
2022-09-18T14:31:47.051Z,1.17
2022-09-18T14:34:30.477Z,1.00
2022-09-18T14:37:00.313Z,0.90
2022-09-18T14:39:29.552Z,1.30
2022-09-18T14:42:03.679Z,1.10
2022-09-18T14:44:32.505Z,1.10
2022-09-18T14:47:04.717Z,1.25
2022-09-18T14:49:41.538Z,0.70
2022-09-18T14:52:28.949Z,0.70
2022-09-18T14:54:58.524Z,1.27
2022-09-18T14:57:33.040Z,1.20
2022-09-18T15:00:01.627Z,0.77
2022-09-18T15:02:36.141Z,0.90
2022-09-18T15:05:10.503Z,0.90
2022-09-18T15:07:43.452Z,1.10
2022-09-18T15:10:15.061Z,1.30
2022-09-18T15:12:45.521Z,1.08
2022-09-18T15:15:31.555Z,1.15
2022-09-18T15:17:58.592Z,1.35
2022-09-18T15:20:29.912Z,1.20
2022-09-18T15:23:20.229Z,1.13
2022-09-18T15:25:53.730Z,1.15
2022-09-18T15:28:23.115Z,1.40
2022-09-18T15:30:53.097Z,1.25
2022-09-18T15:33:21.124Z,1.92
2022-09-18T15:35:51.694Z,1.48
2022-09-18T15:38:24.062Z,1.10
2022-09-18T15:40:51.825Z,1.33
2022-09-18T15:43:30.507Z,1.20
2022-09-18T15:46:09.294Z,0.80
2022-09-18T15:48:39.979Z,1.02
2022-09-18T15:51:27.457Z,0.65
2022-09-18T15:54:05.227Z,1.23
2022-09-18T15:56:34.156Z,2.22
2022-09-18T15:59:04.890Z,1.35
2022-09-18T16:01:37.327Z,0.85
2022-09-18T16:04:14.677Z,0.70
2022-09-18T16:07:03.317Z,0.93
2022-09-18T16:09:44.794Z,0.70
2022-09-18T16:12:29.267Z,0.80
2022-09-18T16:15:11.105Z,1.05
2022-09-18T16:17:39.479Z,1.30
2022-09-18T16:20:35.530Z,1.48
2022-09-18T16:23:24.254Z,1.40
2022-09-18T16:26:07.636Z,1.25
2022-09-18T16:28:39.668Z,1.23
2022-09-18T16:31:06.089Z,0.63
2022-09-18T16:33:34.134Z,0.77
2022-09-18T16:36:00.404Z,0.70
2022-09-18T16:38:26.742Z,0.73
2022-09-18T16:40:53.955Z,0.60
2022-09-18T16:43:20.313Z,0.60
2022-09-18T16:45:47.930Z,0.80
2022-09-18T16:48:15.090Z,0.90
2022-09-18T16:50:41.754Z,0.85
2022-09-18T16:53:08.584Z,0.90
2022-09-18T16:55:41.888Z,1.00
2022-09-18T16:58:09.230Z,0.90
2022-09-18T17:00:37.566Z,0.70
2022-09-18T17:03:06.475Z,1.50
2022-09-18T17:05:34.619Z,4.70
2022-09-18T17:08:03.915Z,0.82
2022-09-18T17:10:31.542Z,3.42
2022-09-18T17:12:58.452Z,2.53
2022-09-18T17:15:24.972Z,2.05
2022-09-18T17:17:51.939Z,1.30
2022-09-18T17:20:18.906Z,1.13
2022-09-18T17:22:46.930Z,1.10
2022-09-18T17:25:15.008Z,0.73
2022-09-18T17:27:43.832Z,0.70
2022-09-18T17:30:11.800Z,0.77
2022-09-18T17:32:38.843Z,0.77
2022-09-18T17:35:05.593Z,0.73
2022-09-18T17:37:32.387Z,1.23
2022-09-18T17:40:00.404Z,1.10
2022-09-18T17:42:26.934Z,2.03
2022-09-18T17:44:53.284Z,4.68
2022-09-18T17:47:20.412Z,1.20
2022-09-18T17:49:46.912Z,2.15
2022-09-18T17:52:13.956Z,0.90
2022-09-18T17:54:40.943Z,1.02
2022-09-18T17:57:11.460Z,0.85
2022-09-18T17:59:39.527Z,0.77
2022-09-18T18:02:07.987Z,1.08
2022-09-18T18:04:34.823Z,0.82
2022-09-18T18:07:02.116Z,1.30
2022-09-18T18:09:28.493Z,0.93
2022-09-18T18:11:55.123Z,0.93
2022-09-18T18:14:25.058Z,0.75
2022-09-18T18:16:52.716Z,0.93
2022-09-18T18:19:19.237Z,0.90
2022-09-18T18:21:45.768Z,0.90
2022-09-18T18:24:15.241Z,2.13
2022-09-18T18:26:42.816Z,2.47
2022-09-18T18:29:11.350Z,2.80
2022-09-18T18:31:39.663Z,3.35
2022-09-18T18:34:06.547Z,1.05
2022-09-18T18:36:33.736Z,1.10
2022-09-18T18:39:01.807Z,2.03
2022-09-18T18:41:29.967Z,2.58
2022-09-18T18:43:58.424Z,1.65
2022-09-18T18:46:26.865Z,1.50
2022-09-18T18:49:02.107Z,1.02
2022-09-18T18:51:35.990Z,1.08
2022-09-18T18:54:03.910Z,1.42
2022-09-18T18:56:33.900Z,0.68
2022-09-18T18:59:02.267Z,0.65
2022-09-18T19:01:30.026Z,0.95
2022-09-18T19:03:59.872Z,1.35
2022-09-18T19:06:27.061Z,1.38
2022-09-18T19:08:59.073Z,1.13
2022-09-18T19:11:26.984Z,0.52
2022-09-18T19:13:56.630Z,1.58
2022-09-18T19:16:28.667Z,0.65
2022-09-18T19:18:58.587Z,0.63
2022-09-18T19:21:26.170Z,0.70
2022-09-18T19:23:55.766Z,1.38
2022-09-18T19:26:24.553Z,0.85
2022-09-18T19:28:53.140Z,0.80
2022-09-18T19:31:20.614Z,1.50
2022-09-18T19:33:52.513Z,0.70
2022-09-18T19:36:24.884Z,0.70
2022-09-18T19:38:52.481Z,0.63
2022-09-18T19:41:35.904Z,0.75
2022-09-18T19:44:04.172Z,0.77
2022-09-18T19:46:32.386Z,0.65
2022-09-18T19:48:59.390Z,0.52
2022-09-18T19:51:26.689Z,0.98
2022-09-18T19:53:53.047Z,0.65
2022-09-18T19:56:39.596Z,1.00
2022-09-18T19:59:05.740Z,0.73
2022-09-18T20:01:32.144Z,0.70
2022-09-18T20:03:58.795Z,0.68
2022-09-18T20:06:25.140Z,0.68
2022-09-18T20:08:51.552Z,0.90
2022-09-18T20:11:18.208Z,0.63
2022-09-18T20:13:49.050Z,0.60
2022-09-18T20:16:15.603Z,0.45
2022-09-18T20:18:42.718Z,0.65
2022-09-18T20:21:12.422Z,0.60
2022-09-18T20:23:39.766Z,0.77
2022-09-18T20:26:11.434Z,0.80
2022-09-18T20:28:38.255Z,0.93
2022-09-18T20:31:07.082Z,1.13
2022-09-18T20:33:34.373Z,0.80
2022-09-18T20:36:01.564Z,0.70
2022-09-18T20:38:36.738Z,1.08
2022-09-18T20:41:09.730Z,1.80
2022-09-18T20:43:38.714Z,1.20
2022-09-18T20:46:07.657Z,1.13
2022-09-18T20:48:41.575Z,2.90
2022-09-18T20:51:10.909Z,2.20
2022-09-18T20:53:39.192Z,0.93
2022-09-18T20:56:06.723Z,1.75
2022-09-18T20:58:34.050Z,1.45
2022-09-18T21:01:11.974Z,1.00
2022-09-18T21:03:41.002Z,1.20
2022-09-18T21:06:23.307Z,0.65
2022-09-18T21:08:53.509Z,2.17
2022-09-18T21:11:26.481Z,1.00
2022-09-18T21:14:01.182Z,1.35
2022-09-18T21:16:30.231Z,1.20
2022-09-18T21:19:00.107Z,1.27
2022-09-18T21:21:30.533Z,1.00
2022-09-18T21:23:59.462Z,1.13
2022-09-18T21:26:37.372Z,0.70
2022-09-18T21:29:13.296Z,1.20
2022-09-18T21:31:44.786Z,1.00
2022-09-18T21:34:26.774Z,0.80
2022-09-18T21:36:57.759Z,0.85
2022-09-18T21:39:25.904Z,0.80
2022-09-18T21:41:53.214Z,1.08
2022-09-18T21:44:27.020Z,1.35
2022-09-18T21:46:55.174Z,1.42
2022-09-18T21:49:22.659Z,0.80
2022-09-18T21:51:49.880Z,0.77
2022-09-18T21:54:19.131Z,1.33
2022-09-18T21:56:49.392Z,1.00
2022-09-18T21:59:15.842Z,1.10
2022-09-18T22:01:43.512Z,0.82
2022-09-18T22:04:10.804Z,1.33
2022-09-18T22:06:41.586Z,0.85
2022-09-18T22:09:11.745Z,0.90
2022-09-18T22:11:39.016Z,1.40
2022-09-18T22:14:14.481Z,0.88
2022-09-18T22:16:43.201Z,0.80
2022-09-18T22:19:10.230Z,0.70
2022-09-18T22:21:38.995Z,0.70
2022-09-18T22:24:09.031Z,1.60
2022-09-18T22:26:41.475Z,0.70
2022-09-18T22:29:13.405Z,0.82
2022-09-18T22:31:40.393Z,0.90
2022-09-18T22:34:07.027Z,0.75
2022-09-18T22:36:33.748Z,0.95
2022-09-18T22:39:00.348Z,0.80
2022-09-18T22:41:26.702Z,1.10
2022-09-18T22:43:55.198Z,1.08
2022-09-18T22:46:22.901Z,1.17
2022-09-18T22:48:49.875Z,0.60
2022-09-18T22:51:19.176Z,0.60
2022-09-18T22:53:51.075Z,0.90
2022-09-18T22:56:19.262Z,0.93
2022-09-18T22:58:45.627Z,1.58
2022-09-18T23:01:21.840Z,0.77
2022-09-18T23:03:50.308Z,0.90
2022-09-18T23:06:17.524Z,1.00
2022-09-18T23:08:44.753Z,0.80
2022-09-18T23:11:13.655Z,0.70
2022-09-18T23:13:42.507Z,0.70
2022-09-18T23:16:11.700Z,1.00
2022-09-18T23:18:38.508Z,0.75
2022-09-18T23:21:11.407Z,1.17
2022-09-18T23:23:40.206Z,0.95
2022-09-18T23:26:09.615Z,0.90
2022-09-18T23:28:38.658Z,0.88
2022-09-18T23:31:10.856Z,0.93
2022-09-18T23:33:38.415Z,0.80
2022-09-18T23:36:06.002Z,1.10
2022-09-18T23:38:32.351Z,0.80
2022-09-18T23:41:00.990Z,0.88
2022-09-18T23:43:27.945Z,0.90
2022-09-18T23:45:54.824Z,0.75
2022-09-18T23:48:21.165Z,0.93
2022-09-18T23:50:47.524Z,1.00
2022-09-18T23:53:13.870Z,0.90
2022-09-18T23:55:40.212Z,0.70
2022-09-18T23:58:06.548Z,0.80
